sensor_id;sensor_type;location;lat;lon;timestamp;P1;durP1;ratioP1;P2;durP2;ratioP2
179;SDS011;78;48.788;9.010;2023-04-25T00:00:06;17.17;;;3.50;;
179;SDS011;78;48.788;9.010;2023-04-25T00:02:33;16.33;;;3.40;;
179;SDS011;78;48.788;9.010;2023-04-25T00:05:00;16.27;;;3.50;;
179;SDS011;78;48.788;9.010;2023-04-25T00:07:27;18.17;;;3.83;;
179;SDS011;78;48.788;9.010;2023-04-25T00:09:53;18.93;;;3.97;;
179;SDS011;78;48.788;9.010;2023-04-25T00:12:20;17.00;;;3.80;;
179;SDS011;78;48.788;9.010;2023-04-25T00:14:48;17.13;;;4.10;;
179;SDS011;78;48.788;9.010;2023-04-25T00:17:17;16.30;;;3.63;;
179;SDS011;78;48.788;9.010;2023-04-25T00:19:44;18.10;;;4.00;;
179;SDS011;78;48.788;9.010;2023-04-25T00:22:11;16.40;;;3.63;;
179;SDS011;78;48.788;9.010;2023-04-25T00:24:38;17.53;;;3.80;;
179;SDS011;78;48.788;9.010;2023-04-25T00:27:04;19.40;;;3.90;;
179;SDS011;78;48.788;9.010;2023-04-25T00:29:31;16.73;;;3.67;;
179;SDS011;78;48.788;9.010;2023-04-25T00:31:57;17.23;;;3.83;;
179;SDS011;78;48.788;9.010;2023-04-25T00:34:24;21.37;;;4.03;;
179;SDS011;78;48.788;9.010;2023-04-25T00:36:50;16.47;;;3.80;;
179;SDS011;78;48.788;9.010;2023-04-25T00:39:16;17.07;;;3.80;;
179;SDS011;78;48.788;9.010;2023-04-25T00:41:42;17.30;;;4.10;;
179;SDS011;78;48.788;9.010;2023-04-25T00:44:09;18.80;;;3.77;;
179;SDS011;78;48.788;9.010;2023-04-25T00:46:36;17.10;;;4.20;;
179;SDS011;78;48.788;9.010;2023-04-25T00:49:03;23.00;;;6.80;;
179;SDS011;78;48.788;9.010;2023-04-25T00:51:30;25.67;;;7.00;;
179;SDS011;78;48.788;9.010;2023-04-25T00:53:57;23.63;;;4.60;;
179;SDS011;78;48.788;9.010;2023-04-25T00:56:23;19.20;;;4.93;;
179;SDS011;78;48.788;9.010;2023-04-25T00:58:49;18.63;;;4.43;;
179;SDS011;78;48.788;9.010;2023-04-25T01:01:19;16.90;;;4.40;;
179;SDS011;78;48.788;9.010;2023-04-25T01:03:46;17.67;;;4.53;;
179;SDS011;78;48.788;9.010;2023-04-25T01:06:15;18.30;;;4.50;;
179;SDS011;78;48.788;9.010;2023-04-25T01:08:41;23.17;;;5.37;;
179;SDS011;78;48.788;9.010;2023-04-25T01:11:07;18.53;;;5.10;;
179;SDS011;78;48.788;9.010;2023-04-25T01:13:34;18.90;;;4.93;;
179;SDS011;78;48.788;9.010;2023-04-25T01:16:01;18.50;;;5.10;;
179;SDS011;78;48.788;9.010;2023-04-25T01:18:30;21.40;;;4.80;;
179;SDS011;78;48.788;9.010;2023-04-25T01:21:02;18.13;;;4.77;;
179;SDS011;78;48.788;9.010;2023-04-25T01:23:30;23.63;;;5.20;;
179;SDS011;78;48.788;9.010;2023-04-25T01:25:58;17.93;;;4.70;;
179;SDS011;78;48.788;9.010;2023-04-25T01:28:25;19.73;;;4.73;;
179;SDS011;78;48.788;9.010;2023-04-25T01:30:52;17.40;;;4.73;;
179;SDS011;78;48.788;9.010;2023-04-25T01:33:18;20.17;;;5.00;;
179;SDS011;78;48.788;9.010;2023-04-25T01:35:44;17.43;;;4.40;;
179;SDS011;78;48.788;9.010;2023-04-25T01:38:12;19.43;;;4.30;;
179;SDS011;78;48.788;9.010;2023-04-25T01:40:39;18.53;;;4.77;;
179;SDS011;78;48.788;9.010;2023-04-25T01:43:06;17.93;;;4.53;;
179;SDS011;78;48.788;9.010;2023-04-25T01:45:37;18.60;;;4.80;;
179;SDS011;78;48.788;9.010;2023-04-25T01:48:10;19.93;;;4.80;;
179;SDS011;78;48.788;9.010;2023-04-25T01:50:37;24.70;;;4.70;;
179;SDS011;78;48.788;9.010;2023-04-25T01:53:03;20.33;;;5.50;;
179;SDS011;78;48.788;9.010;2023-04-25T01:55:30;20.10;;;5.10;;
179;SDS011;78;48.788;9.010;2023-04-25T01:57:56;19.60;;;5.00;;
179;SDS011;78;48.788;9.010;2023-04-25T02:00:42;18.93;;;4.77;;
179;SDS011;78;48.788;9.010;2023-04-25T02:03:08;19.20;;;4.80;;
179;SDS011;78;48.788;9.010;2023-04-25T02:05:35;18.87;;;5.33;;
179;SDS011;78;48.788;9.010;2023-04-25T02:08:02;19.50;;;5.53;;
179;SDS011;78;48.788;9.010;2023-04-25T02:10:28;19.30;;;5.20;;
179;SDS011;78;48.788;9.010;2023-04-25T02:12:55;19.43;;;4.90;;
179;SDS011;78;48.788;9.010;2023-04-25T02:15:22;19.00;;;4.90;;
179;SDS011;78;48.788;9.010;2023-04-25T02:17:48;19.93;;;5.07;;
179;SDS011;78;48.788;9.010;2023-04-25T02:20:15;18.80;;;5.07;;
179;SDS011;78;48.788;9.010;2023-04-25T02:22:41;19.30;;;4.93;;
179;SDS011;78;48.788;9.010;2023-04-25T02:25:08;18.80;;;4.60;;
179;SDS011;78;48.788;9.010;2023-04-25T02:27:34;20.63;;;5.30;;
179;SDS011;78;48.788;9.010;2023-04-25T02:30:01;18.93;;;5.20;;
179;SDS011;78;48.788;9.010;2023-04-25T02:32:27;19.00;;;5.27;;
179;SDS011;78;48.788;9.010;2023-04-25T02:34:54;19.30;;;5.37;;
179;SDS011;78;48.788;9.010;2023-04-25T02:37:20;19.00;;;5.10;;
179;SDS011;78;48.788;9.010;2023-04-25T02:39:46;24.97;;;5.37;;
179;SDS011;78;48.788;9.010;2023-04-25T02:42:12;19.23;;;5.40;;
179;SDS011;78;48.788;9.010;2023-04-25T02:44:38;19.87;;;4.90;;
179;SDS011;78;48.788;9.010;2023-04-25T02:47:05;20.00;;;5.13;;
179;SDS011;78;48.788;9.010;2023-04-25T02:49:31;20.80;;;4.90;;
179;SDS011;78;48.788;9.010;2023-04-25T02:51:58;18.30;;;4.90;;
179;SDS011;78;48.788;9.010;2023-04-25T02:54:24;19.50;;;5.30;;
179;SDS011;78;48.788;9.010;2023-04-25T02:56:50;23.50;;;5.07;;
179;SDS011;78;48.788;9.010;2023-04-25T02:59:17;17.50;;;4.70;;
179;SDS011;78;48.788;9.010;2023-04-25T03:01:43;21.77;;;4.90;;
179;SDS011;78;48.788;9.010;2023-04-25T03:04:10;18.60;;;4.90;;
179;SDS011;78;48.788;9.010;2023-04-25T03:06:36;19.30;;;4.60;;
179;SDS011;78;48.788;9.010;2023-04-25T03:09:03;18.07;;;4.80;;
179;SDS011;78;48.788;9.010;2023-04-25T03:11:29;18.40;;;5.00;;
179;SDS011;78;48.788;9.010;2023-04-25T03:13:55;20.27;;;4.93;;
179;SDS011;78;48.788;9.010;2023-04-25T03:16:22;17.77;;;5.10;;
179;SDS011;78;48.788;9.010;2023-04-25T03:18:48;19.70;;;4.67;;
179;SDS011;78;48.788;9.010;2023-04-25T03:21:15;18.93;;;4.87;;
179;SDS011;78;48.788;9.010;2023-04-25T03:23:42;18.20;;;4.90;;
179;SDS011;78;48.788;9.010;2023-04-25T03:26:08;18.10;;;4.70;;
179;SDS011;78;48.788;9.010;2023-04-25T03:28:35;18.17;;;4.73;;
179;SDS011;78;48.788;9.010;2023-04-25T03:31:01;23.23;;;4.80;;
179;SDS011;78;48.788;9.010;2023-04-25T03:33:27;18.70;;;4.97;;
179;SDS011;78;48.788;9.010;2023-04-25T03:35:54;21.07;;;4.93;;
179;SDS011;78;48.788;9.010;2023-04-25T03:38:20;19.63;;;5.07;;
179;SDS011;78;48.788;9.010;2023-04-25T03:40:47;18.80;;;5.10;;
179;SDS011;78;48.788;9.010;2023-04-25T03:43:13;24.47;;;5.50;;
179;SDS011;78;48.788;9.010;2023-04-25T03:45:40;20.43;;;5.97;;
179;SDS011;78;48.788;9.010;2023-04-25T03:48:06;17.73;;;5.03;;
179;SDS011;78;48.788;9.010;2023-04-25T03:50:33;20.23;;;4.90;;
179;SDS011;78;48.788;9.010;2023-04-25T03:52:59;22.17;;;5.60;;
179;SDS011;78;48.788;9.010;2023-04-25T03:55:26;19.60;;;5.37;;
179;SDS011;78;48.788;9.010;2023-04-25T03:57:53;23.40;;;5.20;;
179;SDS011;78;48.788;9.010;2023-04-25T04:00:20;25.23;;;5.60;;
179;SDS011;78;48.788;9.010;2023-04-25T04:02:46;19.57;;;5.87;;
179;SDS011;78;48.788;9.010;2023-04-25T04:05:12;21.67;;;6.13;;
179;SDS011;78;48.788;9.010;2023-04-25T04:07:38;21.27;;;6.80;;
179;SDS011;78;48.788;9.010;2023-04-25T04:10:09;21.47;;;6.30;;
179;SDS011;78;48.788;9.010;2023-04-25T04:12:35;20.17;;;6.40;;
179;SDS011;78;48.788;9.010;2023-04-25T04:15:02;23.47;;;6.33;;
179;SDS011;78;48.788;9.010;2023-04-25T04:17:29;20.87;;;6.60;;
179;SDS011;78;48.788;9.010;2023-04-25T04:19:55;19.27;;;5.97;;
179;SDS011;78;48.788;9.010;2023-04-25T04:22:22;22.40;;;6.53;;
179;SDS011;78;48.788;9.010;2023-04-25T04:24:48;24.83;;;6.27;;
179;SDS011;78;48.788;9.010;2023-04-25T04:27:15;21.17;;;6.23;;
179;SDS011;78;48.788;9.010;2023-04-25T04:29:43;21.20;;;6.63;;
179;SDS011;78;48.788;9.010;2023-04-25T04:32:10;25.00;;;6.87;;
179;SDS011;78;48.788;9.010;2023-04-25T04:34:36;21.30;;;6.10;;
179;SDS011;78;48.788;9.010;2023-04-25T04:37:04;19.73;;;6.03;;
179;SDS011;78;48.788;9.010;2023-04-25T04:39:32;19.80;;;6.10;;
179;SDS011;78;48.788;9.010;2023-04-25T04:41:58;21.83;;;5.90;;
179;SDS011;78;48.788;9.010;2023-04-25T04:44:24;21.90;;;6.40;;
179;SDS011;78;48.788;9.010;2023-04-25T04:46:52;19.57;;;5.67;;
179;SDS011;78;48.788;9.010;2023-04-25T04:49:18;25.50;;;6.47;;
179;SDS011;78;48.788;9.010;2023-04-25T04:51:44;25.00;;;6.77;;
179;SDS011;78;48.788;9.010;2023-04-25T04:54:12;24.17;;;6.97;;
179;SDS011;78;48.788;9.010;2023-04-25T04:56:38;20.67;;;6.13;;
179;SDS011;78;48.788;9.010;2023-04-25T04:59:04;23.00;;;6.10;;
179;SDS011;78;48.788;9.010;2023-04-25T05:01:31;22.10;;;6.90;;
179;SDS011;78;48.788;9.010;2023-04-25T05:03:58;21.73;;;6.00;;
179;SDS011;78;48.788;9.010;2023-04-25T05:06:25;23.07;;;5.83;;
179;SDS011;78;48.788;9.010;2023-04-25T05:08:51;21.57;;;6.20;;
179;SDS011;78;48.788;9.010;2023-04-25T05:11:21;19.70;;;6.10;;
179;SDS011;78;48.788;9.010;2023-04-25T05:13:47;21.30;;;5.93;;
179;SDS011;78;48.788;9.010;2023-04-25T05:16:13;21.10;;;6.40;;
179;SDS011;78;48.788;9.010;2023-04-25T05:18:39;22.30;;;6.50;;
179;SDS011;78;48.788;9.010;2023-04-25T05:21:06;21.73;;;6.77;;
179;SDS011;78;48.788;9.010;2023-04-25T05:23:32;25.30;;;7.53;;
179;SDS011;78;48.788;9.010;2023-04-25T05:25:58;25.03;;;6.83;;
179;SDS011;78;48.788;9.010;2023-04-25T05:28:24;20.10;;;5.90;;
179;SDS011;78;48.788;9.010;2023-04-25T05:30:50;19.30;;;6.30;;
179;SDS011;78;48.788;9.010;2023-04-25T05:33:17;20.77;;;6.50;;
179;SDS011;78;48.788;9.010;2023-04-25T05:35:43;19.50;;;6.50;;
179;SDS011;78;48.788;9.010;2023-04-25T05:38:09;19.90;;;6.20;;
179;SDS011;78;48.788;9.010;2023-04-25T05:40:35;21.57;;;6.83;;
179;SDS011;78;48.788;9.010;2023-04-25T05:43:01;21.33;;;6.30;;
179;SDS011;78;48.788;9.010;2023-04-25T05:45:27;21.03;;;6.70;;
179;SDS011;78;48.788;9.010;2023-04-25T05:47:53;20.50;;;6.20;;
179;SDS011;78;48.788;9.010;2023-04-25T05:50:19;21.40;;;6.90;;
179;SDS011;78;48.788;9.010;2023-04-25T05:52:46;21.20;;;6.70;;
179;SDS011;78;48.788;9.010;2023-04-25T05:55:12;20.10;;;5.90;;
179;SDS011;78;48.788;9.010;2023-04-25T05:57:38;18.87;;;5.70;;
179;SDS011;78;48.788;9.010;2023-04-25T06:00:06;21.00;;;6.30;;
179;SDS011;78;48.788;9.010;2023-04-25T06:02:34;18.73;;;5.53;;
179;SDS011;78;48.788;9.010;2023-04-25T06:05:00;24.30;;;5.93;;
179;SDS011;78;48.788;9.010;2023-04-25T06:07:28;19.67;;;5.77;;
179;SDS011;78;48.788;9.010;2023-04-25T06:09:55;20.03;;;6.03;;
179;SDS011;78;48.788;9.010;2023-04-25T06:12:21;19.00;;;5.23;;
179;SDS011;78;48.788;9.010;2023-04-25T06:14:46;21.83;;;5.80;;
179;SDS011;78;48.788;9.010;2023-04-25T06:17:13;20.23;;;5.27;;
179;SDS011;78;48.788;9.010;2023-04-25T06:19:39;19.97;;;6.33;;
179;SDS011;78;48.788;9.010;2023-04-25T06:22:05;22.00;;;7.03;;
179;SDS011;78;48.788;9.010;2023-04-25T06:24:32;19.93;;;5.80;;
179;SDS011;78;48.788;9.010;2023-04-25T06:26:58;19.70;;;6.07;;
179;SDS011;78;48.788;9.010;2023-04-25T06:29:24;19.53;;;5.80;;
179;SDS011;78;48.788;9.010;2023-04-25T06:31:50;21.90;;;6.53;;
179;SDS011;78;48.788;9.010;2023-04-25T06:34:16;19.87;;;6.30;;
179;SDS011;78;48.788;9.010;2023-04-25T06:36:42;21.40;;;6.20;;
179;SDS011;78;48.788;9.010;2023-04-25T06:39:09;20.17;;;5.60;;
179;SDS011;78;48.788;9.010;2023-04-25T06:41:35;19.93;;;6.30;;
179;SDS011;78;48.788;9.010;2023-04-25T06:44:01;18.60;;;5.60;;
179;SDS011;78;48.788;9.010;2023-04-25T06:46:27;20.63;;;6.60;;
179;SDS011;78;48.788;9.010;2023-04-25T06:48:53;20.50;;;6.50;;
179;SDS011;78;48.788;9.010;2023-04-25T06:51:20;21.23;;;6.60;;
179;SDS011;78;48.788;9.010;2023-04-25T06:53:46;20.03;;;6.57;;
179;SDS011;78;48.788;9.010;2023-04-25T06:56:12;19.37;;;6.20;;
179;SDS011;78;48.788;9.010;2023-04-25T06:58:38;19.53;;;5.90;;
179;SDS011;78;48.788;9.010;2023-04-25T07:01:04;21.67;;;6.30;;
179;SDS011;78;48.788;9.010;2023-04-25T07:03:30;19.70;;;6.07;;
179;SDS011;78;48.788;9.010;2023-04-25T07:05:56;22.53;;;7.60;;
179;SDS011;78;48.788;9.010;2023-04-25T07:08:22;24.50;;;7.50;;
179;SDS011;78;48.788;9.010;2023-04-25T07:10:47;21.67;;;6.90;;
179;SDS011;78;48.788;9.010;2023-04-25T07:13:13;23.60;;;7.40;;
179;SDS011;78;48.788;9.010;2023-04-25T07:15:39;22.47;;;7.47;;
179;SDS011;78;48.788;9.010;2023-04-25T07:18:06;22.53;;;7.30;;
179;SDS011;78;48.788;9.010;2023-04-25T07:20:32;22.50;;;7.07;;
179;SDS011;78;48.788;9.010;2023-04-25T07:23:00;21.43;;;7.27;;
179;SDS011;78;48.788;9.010;2023-04-25T07:25:25;23.70;;;8.00;;
179;SDS011;78;48.788;9.010;2023-04-25T07:27:52;24.03;;;8.27;;
179;SDS011;78;48.788;9.010;2023-04-25T07:30:17;28.90;;;7.70;;
179;SDS011;78;48.788;9.010;2023-04-25T07:32:43;25.60;;;7.93;;
179;SDS011;78;48.788;9.010;2023-04-25T07:35:10;21.87;;;7.13;;
179;SDS011;78;48.788;9.010;2023-04-25T07:37:36;28.30;;;7.50;;
179;SDS011;78;48.788;9.010;2023-04-25T07:40:03;21.50;;;7.40;;
179;SDS011;78;48.788;9.010;2023-04-25T07:42:29;22.63;;;6.90;;
179;SDS011;78;48.788;9.010;2023-04-25T07:44:55;21.77;;;7.80;;
179;SDS011;78;48.788;9.010;2023-04-25T07:47:21;22.53;;;7.23;;
179;SDS011;78;48.788;9.010;2023-04-25T07:49:47;23.17;;;7.27;;
179;SDS011;78;48.788;9.010;2023-04-25T07:52:13;23.13;;;7.67;;
179;SDS011;78;48.788;9.010;2023-04-25T07:54:39;20.80;;;6.83;;
179;SDS011;78;48.788;9.010;2023-04-25T07:57:06;20.10;;;6.80;;
179;SDS011;78;48.788;9.010;2023-04-25T07:59:32;21.90;;;7.50;;
179;SDS011;78;48.788;9.010;2023-04-25T08:01:58;21.03;;;7.10;;
179;SDS011;78;48.788;9.010;2023-04-25T08:04:24;22.57;;;6.90;;
179;SDS011;78;48.788;9.010;2023-04-25T08:06:50;25.50;;;7.57;;
179;SDS011;78;48.788;9.010;2023-04-25T08:09:18;26.50;;;8.07;;
179;SDS011;78;48.788;9.010;2023-04-25T08:11:44;20.77;;;7.40;;
179;SDS011;78;48.788;9.010;2023-04-25T08:14:11;21.70;;;7.37;;
179;SDS011;78;48.788;9.010;2023-04-25T08:16:37;21.30;;;7.13;;
179;SDS011;78;48.788;9.010;2023-04-25T08:19:03;21.67;;;7.20;;
179;SDS011;78;48.788;9.010;2023-04-25T08:21:30;20.87;;;7.03;;
179;SDS011;78;48.788;9.010;2023-04-25T08:23:56;22.10;;;7.70;;
179;SDS011;78;48.788;9.010;2023-04-25T08:26:23;22.57;;;7.57;;
179;SDS011;78;48.788;9.010;2023-04-25T08:28:49;20.83;;;6.93;;
179;SDS011;78;48.788;9.010;2023-04-25T08:31:15;23.83;;;7.40;;
179;SDS011;78;48.788;9.010;2023-04-25T08:33:41;21.27;;;7.00;;
179;SDS011;78;48.788;9.010;2023-04-25T08:36:08;21.60;;;7.60;;
179;SDS011;78;48.788;9.010;2023-04-25T08:38:35;26.07;;;8.50;;
179;SDS011;78;48.788;9.010;2023-04-25T08:41:01;23.43;;;8.00;;
179;SDS011;78;48.788;9.010;2023-04-25T08:43:27;22.97;;;7.30;;
179;SDS011;78;48.788;9.010;2023-04-25T08:45:55;23.47;;;7.80;;
179;SDS011;78;48.788;9.010;2023-04-25T08:48:24;22.97;;;7.70;;
179;SDS011;78;48.788;9.010;2023-04-25T08:50:53;23.30;;;8.30;;
179;SDS011;78;48.788;9.010;2023-04-25T08:53:24;21.50;;;7.43;;
179;SDS011;78;48.788;9.010;2023-04-25T08:55:50;24.33;;;8.00;;
179;SDS011;78;48.788;9.010;2023-04-25T08:58:18;62.07;;;8.43;;
179;SDS011;78;48.788;9.010;2023-04-25T09:00:45;20.90;;;6.87;;
179;SDS011;78;48.788;9.010;2023-04-25T09:03:13;23.97;;;7.50;;
179;SDS011;78;48.788;9.010;2023-04-25T09:05:39;24.40;;;7.50;;
179;SDS011;78;48.788;9.010;2023-04-25T09:08:05;21.90;;;7.70;;
179;SDS011;78;48.788;9.010;2023-04-25T09:10:32;23.97;;;8.50;;
179;SDS011;78;48.788;9.010;2023-04-25T09:13:09;25.53;;;7.27;;
179;SDS011;78;48.788;9.010;2023-04-25T09:15:51;23.80;;;8.50;;
179;SDS011;78;48.788;9.010;2023-04-25T09:18:27;25.57;;;7.70;;
179;SDS011;78;48.788;9.010;2023-04-25T09:20:54;24.13;;;8.63;;
179;SDS011;78;48.788;9.010;2023-04-25T09:23:21;29.37;;;8.70;;
179;SDS011;78;48.788;9.010;2023-04-25T09:25:48;23.93;;;8.10;;
179;SDS011;78;48.788;9.010;2023-04-25T09:28:14;25.63;;;9.27;;
179;SDS011;78;48.788;9.010;2023-04-25T09:30:41;25.23;;;9.07;;
179;SDS011;78;48.788;9.010;2023-04-25T09:33:08;22.30;;;7.00;;
179;SDS011;78;48.788;9.010;2023-04-25T09:35:41;23.57;;;8.07;;
179;SDS011;78;48.788;9.010;2023-04-25T09:38:10;20.33;;;6.30;;
179;SDS011;78;48.788;9.010;2023-04-25T09:40:43;19.70;;;5.63;;
179;SDS011;78;48.788;9.010;2023-04-25T09:43:19;18.60;;;4.93;;
179;SDS011;78;48.788;9.010;2023-04-25T09:45:46;17.33;;;4.30;;
179;SDS011;78;48.788;9.010;2023-04-25T09:48:19;15.93;;;3.80;;
179;SDS011;78;48.788;9.010;2023-04-25T09:51:07;15.37;;;3.53;;
179;SDS011;78;48.788;9.010;2023-04-25T09:53:35;16.67;;;3.80;;
179;SDS011;78;48.788;9.010;2023-04-25T09:56:03;15.57;;;3.20;;
179;SDS011;78;48.788;9.010;2023-04-25T09:58:30;15.60;;;3.10;;
179;SDS011;78;48.788;9.010;2023-04-25T10:01:00;20.43;;;6.47;;
179;SDS011;78;48.788;9.010;2023-04-25T10:03:28;14.57;;;3.00;;
179;SDS011;78;48.788;9.010;2023-04-25T10:05:55;16.50;;;4.23;;
179;SDS011;78;48.788;9.010;2023-04-25T10:08:23;17.83;;;4.63;;
179;SDS011;78;48.788;9.010;2023-04-25T10:10:51;15.30;;;3.57;;
179;SDS011;78;48.788;9.010;2023-04-25T10:13:17;16.53;;;3.70;;
179;SDS011;78;48.788;9.010;2023-04-25T10:15:44;17.80;;;4.30;;
179;SDS011;78;48.788;9.010;2023-04-25T10:18:11;16.93;;;4.20;;
179;SDS011;78;48.788;9.010;2023-04-25T10:20:37;18.70;;;4.90;;
179;SDS011;78;48.788;9.010;2023-04-25T10:23:06;17.30;;;3.60;;
179;SDS011;78;48.788;9.010;2023-04-25T10:25:35;16.43;;;3.90;;
179;SDS011;78;48.788;9.010;2023-04-25T10:28:02;29.20;;;10.90;;
179;SDS011;78;48.788;9.010;2023-04-25T10:30:29;21.50;;;7.40;;
179;SDS011;78;48.788;9.010;2023-04-25T10:32:55;19.40;;;5.60;;
179;SDS011;78;48.788;9.010;2023-04-25T10:37:57;20.33;;;4.80;;
179;SDS011;78;48.788;9.010;2023-04-25T10:40:23;21.60;;;6.60;;
179;SDS011;78;48.788;9.010;2023-04-25T10:42:51;19.87;;;5.07;;
179;SDS011;78;48.788;9.010;2023-04-25T10:45:18;18.43;;;4.93;;
179;SDS011;78;48.788;9.010;2023-04-25T10:47:44;19.37;;;5.10;;
179;SDS011;78;48.788;9.010;2023-04-25T10:50:10;18.70;;;5.60;;
179;SDS011;78;48.788;9.010;2023-04-25T10:52:38;21.40;;;6.57;;
179;SDS011;78;48.788;9.010;2023-04-25T10:55:07;20.20;;;6.40;;
179;SDS011;78;48.788;9.010;2023-04-25T11:00:19;20.87;;;6.80;;
179;SDS011;78;48.788;9.010;2023-04-25T11:02:53;22.17;;;7.40;;
179;SDS011;78;48.788;9.010;2023-04-25T11:07:50;20.90;;;7.10;;
179;SDS011;78;48.788;9.010;2023-04-25T11:10:16;23.50;;;8.50;;
179;SDS011;78;48.788;9.010;2023-04-25T11:12:43;20.20;;;6.30;;
179;SDS011;78;48.788;9.010;2023-04-25T11:15:10;19.50;;;6.30;;
179;SDS011;78;48.788;9.010;2023-04-25T11:17:36;24.60;;;7.07;;
179;SDS011;78;48.788;9.010;2023-04-25T11:20:04;19.20;;;6.17;;
179;SDS011;78;48.788;9.010;2023-04-25T11:22:36;19.00;;;5.93;;
179;SDS011;78;48.788;9.010;2023-04-25T11:25:06;19.03;;;5.70;;
179;SDS011;78;48.788;9.010;2023-04-25T11:27:32;24.13;;;8.20;;
179;SDS011;78;48.788;9.010;2023-04-25T11:29:58;17.47;;;4.83;;
179;SDS011;78;48.788;9.010;2023-04-25T11:32:24;22.97;;;7.23;;
179;SDS011;78;48.788;9.010;2023-04-25T11:34:52;21.93;;;6.80;;
179;SDS011;78;48.788;9.010;2023-04-25T11:37:18;23.73;;;7.13;;
179;SDS011;78;48.788;9.010;2023-04-25T11:39:45;24.50;;;8.63;;
179;SDS011;78;48.788;9.010;2023-04-25T11:42:11;30.93;;;11.17;;
179;SDS011;78;48.788;9.010;2023-04-25T11:44:38;24.50;;;8.93;;
179;SDS011;78;48.788;9.010;2023-04-25T11:47:04;22.10;;;7.20;;
179;SDS011;78;48.788;9.010;2023-04-25T11:49:31;18.80;;;5.80;;
179;SDS011;78;48.788;9.010;2023-04-25T11:51:57;20.90;;;5.87;;
179;SDS011;78;48.788;9.010;2023-04-25T11:54:23;20.40;;;6.50;;
179;SDS011;78;48.788;9.010;2023-04-25T11:56:49;20.80;;;6.13;;
179;SDS011;78;48.788;9.010;2023-04-25T11:59:15;20.10;;;6.30;;
179;SDS011;78;48.788;9.010;2023-04-25T12:01:47;21.27;;;7.87;;
179;SDS011;78;48.788;9.010;2023-04-25T12:04:23;22.60;;;8.30;;
179;SDS011;78;48.788;9.010;2023-04-25T12:06:50;44.03;;;20.00;;
179;SDS011;78;48.788;9.010;2023-04-25T12:09:17;26.40;;;9.80;;
179;SDS011;78;48.788;9.010;2023-04-25T12:11:53;31.40;;;11.90;;
179;SDS011;78;48.788;9.010;2023-04-25T12:14:20;37.30;;;15.60;;
179;SDS011;78;48.788;9.010;2023-04-25T12:16:48;37.73;;;15.50;;
179;SDS011;78;48.788;9.010;2023-04-25T12:19:17;24.07;;;8.67;;
179;SDS011;78;48.788;9.010;2023-04-25T12:21:44;28.70;;;10.20;;
179;SDS011;78;48.788;9.010;2023-04-25T12:29:25;24.10;;;8.93;;
179;SDS011;78;48.788;9.010;2023-04-25T12:31:52;25.07;;;8.93;;
179;SDS011;78;48.788;9.010;2023-04-25T12:34:19;27.90;;;9.83;;
179;SDS011;78;48.788;9.010;2023-04-25T12:36:45;26.90;;;9.87;;
179;SDS011;78;48.788;9.010;2023-04-25T12:39:18;29.43;;;10.23;;
179;SDS011;78;48.788;9.010;2023-04-25T12:41:44;24.80;;;9.70;;
179;SDS011;78;48.788;9.010;2023-04-25T12:44:10;26.33;;;10.53;;
179;SDS011;78;48.788;9.010;2023-04-25T12:46:37;31.00;;;10.90;;
179;SDS011;78;48.788;9.010;2023-04-25T12:49:03;28.80;;;11.10;;
179;SDS011;78;48.788;9.010;2023-04-25T12:51:29;24.90;;;9.67;;
179;SDS011;78;48.788;9.010;2023-04-25T12:53:57;25.70;;;9.80;;
179;SDS011;78;48.788;9.010;2023-04-25T12:56:23;27.00;;;9.70;;
179;SDS011;78;48.788;9.010;2023-04-25T12:58:50;23.70;;;8.73;;
179;SDS011;78;48.788;9.010;2023-04-25T13:01:17;25.90;;;9.97;;
179;SDS011;78;48.788;9.010;2023-04-25T13:03:44;26.93;;;11.20;;
179;SDS011;78;48.788;9.010;2023-04-25T13:06:10;26.47;;;10.00;;
179;SDS011;78;48.788;9.010;2023-04-25T13:08:36;24.37;;;9.30;;
179;SDS011;78;48.788;9.010;2023-04-25T13:11:06;27.77;;;11.30;;
179;SDS011;78;48.788;9.010;2023-04-25T13:13:33;28.03;;;10.80;;
179;SDS011;78;48.788;9.010;2023-04-25T13:16:00;26.70;;;9.87;;
179;SDS011;78;48.788;9.010;2023-04-25T13:18:27;25.90;;;10.07;;
179;SDS011;78;48.788;9.010;2023-04-25T13:20:53;27.73;;;10.80;;
179;SDS011;78;48.788;9.010;2023-04-25T13:23:19;27.07;;;10.20;;
179;SDS011;78;48.788;9.010;2023-04-25T13:25:45;29.00;;;11.07;;
179;SDS011;78;48.788;9.010;2023-04-25T13:28:12;27.30;;;10.70;;
179;SDS011;78;48.788;9.010;2023-04-25T13:30:39;27.93;;;10.87;;
179;SDS011;78;48.788;9.010;2023-04-25T13:33:05;26.70;;;10.00;;
179;SDS011;78;48.788;9.010;2023-04-25T13:35:32;26.50;;;9.87;;
179;SDS011;78;48.788;9.010;2023-04-25T13:38:00;25.87;;;10.20;;
179;SDS011;78;48.788;9.010;2023-04-25T13:40:26;35.77;;;15.10;;
179;SDS011;78;48.788;9.010;2023-04-25T13:42:55;31.83;;;13.93;;
179;SDS011;78;48.788;9.010;2023-04-25T13:45:21;37.73;;;13.30;;
179;SDS011;78;48.788;9.010;2023-04-25T13:47:48;35.70;;;13.87;;
179;SDS011;78;48.788;9.010;2023-04-25T13:50:14;32.93;;;14.43;;
179;SDS011;78;48.788;9.010;2023-04-25T13:52:45;32.00;;;13.17;;
179;SDS011;78;48.788;9.010;2023-04-25T13:55:15;31.30;;;13.40;;
179;SDS011;78;48.788;9.010;2023-04-25T13:57:45;25.93;;;9.33;;
179;SDS011;78;48.788;9.010;2023-04-25T14:00:13;25.93;;;9.40;;
179;SDS011;78;48.788;9.010;2023-04-25T14:02:40;26.63;;;9.27;;
179;SDS011;78;48.788;9.010;2023-04-25T14:05:07;23.27;;;8.83;;
179;SDS011;78;48.788;9.010;2023-04-25T14:07:35;24.80;;;9.60;;
179;SDS011;78;48.788;9.010;2023-04-25T14:10:01;22.37;;;8.33;;
179;SDS011;78;48.788;9.010;2023-04-25T14:12:27;24.80;;;8.30;;
179;SDS011;78;48.788;9.010;2023-04-25T14:14:53;24.20;;;8.60;;
179;SDS011;78;48.788;9.010;2023-04-25T14:17:19;24.87;;;9.60;;
179;SDS011;78;48.788;9.010;2023-04-25T14:19:45;22.00;;;8.23;;
179;SDS011;78;48.788;9.010;2023-04-25T14:22:13;28.00;;;10.60;;
179;SDS011;78;48.788;9.010;2023-04-25T14:24:39;26.30;;;8.73;;
179;SDS011;78;48.788;9.010;2023-04-25T14:27:08;25.60;;;9.90;;
179;SDS011;78;48.788;9.010;2023-04-25T14:29:35;27.10;;;9.50;;
179;SDS011;78;48.788;9.010;2023-04-25T14:32:01;24.43;;;7.70;;
179;SDS011;78;48.788;9.010;2023-04-25T14:34:27;21.13;;;7.80;;
179;SDS011;78;48.788;9.010;2023-04-25T14:36:54;21.40;;;8.07;;
179;SDS011;78;48.788;9.010;2023-04-25T14:39:26;21.37;;;7.50;;
179;SDS011;78;48.788;9.010;2023-04-25T14:41:56;22.77;;;7.43;;
179;SDS011;78;48.788;9.010;2023-04-25T14:44:22;23.43;;;8.30;;
179;SDS011;78;48.788;9.010;2023-04-25T14:46:48;20.27;;;6.73;;
179;SDS011;78;48.788;9.010;2023-04-25T14:49:16;22.70;;;7.73;;
179;SDS011;78;48.788;9.010;2023-04-25T14:51:42;19.50;;;6.43;;
179;SDS011;78;48.788;9.010;2023-04-25T14:54:08;21.97;;;6.50;;
179;SDS011;78;48.788;9.010;2023-04-25T14:56:51;19.13;;;5.87;;
179;SDS011;78;48.788;9.010;2023-04-25T14:59:17;19.27;;;6.23;;
179;SDS011;78;48.788;9.010;2023-04-25T15:01:50;20.10;;;6.20;;
179;SDS011;78;48.788;9.010;2023-04-25T15:04:17;21.07;;;6.90;;
179;SDS011;78;48.788;9.010;2023-04-25T15:06:44;18.47;;;5.50;;
179;SDS011;78;48.788;9.010;2023-04-25T15:09:10;24.17;;;8.70;;
179;SDS011;78;48.788;9.010;2023-04-25T15:11:36;24.40;;;9.30;;
179;SDS011;78;48.788;9.010;2023-04-25T15:14:03;20.80;;;6.70;;
179;SDS011;78;48.788;9.010;2023-04-25T15:16:29;21.10;;;7.20;;
179;SDS011;78;48.788;9.010;2023-04-25T15:18:59;18.60;;;5.27;;
179;SDS011;78;48.788;9.010;2023-04-25T15:21:29;36.57;;;16.83;;
179;SDS011;78;48.788;9.010;2023-04-25T15:23:55;21.00;;;5.80;;
179;SDS011;78;48.788;9.010;2023-04-25T15:26:21;23.03;;;7.87;;
179;SDS011;78;48.788;9.010;2023-04-25T15:28:49;21.00;;;6.70;;
179;SDS011;78;48.788;9.010;2023-04-25T15:31:15;20.93;;;6.97;;
179;SDS011;78;48.788;9.010;2023-04-25T15:33:47;22.07;;;6.67;;
179;SDS011;78;48.788;9.010;2023-04-25T15:36:16;20.40;;;6.40;;
179;SDS011;78;48.788;9.010;2023-04-25T15:38:45;21.17;;;6.77;;
179;SDS011;78;48.788;9.010;2023-04-25T15:41:13;23.70;;;7.10;;
179;SDS011;78;48.788;9.010;2023-04-25T15:43:46;26.60;;;7.90;;
179;SDS011;78;48.788;9.010;2023-04-25T15:46:12;26.00;;;9.47;;
179;SDS011;78;48.788;9.010;2023-04-25T15:48:41;27.03;;;10.07;;
179;SDS011;78;48.788;9.010;2023-04-25T15:51:07;23.70;;;7.87;;
179;SDS011;78;48.788;9.010;2023-04-25T15:53:35;24.67;;;7.83;;
179;SDS011;78;48.788;9.010;2023-04-25T15:56:01;26.50;;;9.50;;